createdAt,value
2018-10-03T00:02:10.995Z,101226.97
2018-10-03T00:04:39.349Z,101218.47
2018-10-03T00:07:07.729Z,101230.75
2018-10-03T00:09:36.040Z,101228.98
2018-10-03T00:12:04.329Z,101226.92
2018-10-03T00:14:32.687Z,101237.43
2018-10-03T00:17:01.040Z,101235.23
2018-10-03T00:19:29.366Z,101240.64
2018-10-03T00:21:57.677Z,101244.31
2018-10-03T00:24:26.002Z,101252.98
2018-10-03T00:26:54.308Z,101255.88
2018-10-03T00:29:22.649Z,101258.80
2018-10-03T00:31:51.032Z,101262.59
2018-10-03T00:34:19.416Z,101265.77
2018-10-03T00:36:47.810Z,101271.13
2018-10-03T00:39:16.174Z,101284.37
2018-10-03T00:41:44.503Z,101284.58
2018-10-03T00:44:12.895Z,101277.33
2018-10-03T00:46:41.176Z,101274.69
2018-10-03T00:49:09.896Z,101275.02
2018-10-03T00:51:38.619Z,101277.20
2018-10-03T00:54:07.026Z,101271.06
2018-10-03T00:56:35.496Z,101271.06
2018-10-03T00:59:03.844Z,101268.91
2018-10-03T01:01:32.143Z,101270.73
2018-10-03T01:04:00.474Z,101275.67
2018-10-03T01:06:28.800Z,101263.80
2018-10-03T01:08:57.160Z,101261.28
2018-10-03T01:11:25.504Z,101257.28
2018-10-03T01:13:53.873Z,101257.93
2018-10-03T01:16:22.193Z,101258.02
2018-10-03T01:18:50.547Z,101257.14
2018-10-03T01:21:18.894Z,101260.66
2018-10-03T01:23:47.238Z,101266.09
2018-10-03T01:26:15.542Z,101268.52
2018-10-03T01:28:43.833Z,101273.27
2018-10-03T01:31:12.146Z,101271.58
2018-10-03T01:33:40.469Z,101284.77
2018-10-03T01:36:08.836Z,101289.38
2018-10-03T01:38:37.147Z,101282.91
2018-10-03T01:41:05.469Z,101283.45
2018-10-03T01:43:33.774Z,101284.64
2018-10-03T01:46:02.085Z,101283.45
2018-10-03T01:48:30.396Z,101279.37
2018-10-03T01:50:58.785Z,101289.43
2018-10-03T01:53:27.251Z,101292.06
2018-10-03T01:55:55.591Z,101288.60
2018-10-03T01:58:23.907Z,101286.45
2018-10-03T02:00:52.253Z,101295.87
2018-10-03T02:03:20.612Z,101294.09
2018-10-03T02:05:48.979Z,101293.59
2018-10-03T02:08:17.270Z,101293.59
2018-10-03T02:10:45.585Z,101300.86
2018-10-03T02:13:13.915Z,101300.86
2018-10-03T02:15:42.249Z,101312.27
2018-10-03T02:18:10.620Z,101314.06
2018-10-03T02:20:38.971Z,101312.89
2018-10-03T02:23:07.275Z,101314.83
2018-10-03T02:25:35.598Z,101309.50
2018-10-03T02:28:03.940Z,101307.92
2018-10-03T02:30:32.438Z,101314.25
2018-10-03T02:33:00.756Z,101320.09
2018-10-03T02:35:29.067Z,101311.99
2018-10-03T02:37:57.399Z,101314.63
2018-10-03T02:40:25.785Z,101317.27
2018-10-03T02:42:54.145Z,101317.05
2018-10-03T02:45:22.461Z,101323.86
2018-10-03T02:47:52.223Z,101323.70
2018-10-03T02:50:20.571Z,101328.00
2018-10-03T02:52:48.900Z,101329.87
2018-10-03T02:55:17.255Z,101328.42
2018-10-03T02:57:45.802Z,101333.21
2018-10-03T03:00:14.220Z,101331.40
2018-10-03T03:02:42.532Z,101334.03
2018-10-03T03:05:10.872Z,101326.00
2018-10-03T03:07:39.249Z,101327.38
2018-10-03T03:10:07.567Z,101331.17
2018-10-03T03:12:35.871Z,101329.36
2018-10-03T03:15:04.228Z,101332.37
2018-10-03T03:17:32.577Z,101338.47
2018-10-03T03:20:00.964Z,101332.37
2018-10-03T03:22:29.268Z,101335.13
2018-10-03T03:24:57.695Z,101339.45
2018-10-03T03:27:25.979Z,101343.05
2018-10-03T03:29:54.320Z,101351.45
2018-10-03T03:32:22.648Z,101348.69
2018-10-03T03:34:50.966Z,101347.38
2018-10-03T03:37:19.301Z,101346.88
2018-10-03T03:39:47.679Z,101349.23
2018-10-03T03:42:16.014Z,101351.87
2018-10-03T03:44:44.316Z,101356.66
2018-10-03T03:47:12.633Z,101356.78
2018-10-03T03:49:40.932Z,101360.47
2018-10-03T03:52:09.280Z,101366.57
2018-10-03T03:54:37.707Z,101361.78
2018-10-03T03:57:06.078Z,101359.52
2018-10-03T03:59:34.388Z,101365.41
2018-10-03T04:02:02.721Z,101364.24
2018-10-03T04:04:31.036Z,101366.02
2018-10-03T04:06:59.352Z,101363.54
2018-10-03T04:09:27.697Z,101360.08
2018-10-03T04:11:56.060Z,101369.31
2018-10-03T04:14:24.386Z,101381.30
2018-10-03T04:16:52.705Z,101380.81
2018-10-03T04:19:21.044Z,101381.02
2018-10-03T04:21:49.328Z,101385.48
2018-10-03T04:24:17.656Z,101388.45
2018-10-03T04:26:45.982Z,101396.73
2018-10-03T04:29:14.402Z,101405.97
2018-10-03T04:31:42.836Z,101402.13
2018-10-03T04:34:11.122Z,101398.33
2018-10-03T04:36:39.456Z,101410.42
2018-10-03T04:39:08.316Z,101401.19
2018-10-03T04:41:37.331Z,101417.35
2018-10-03T04:44:05.651Z,101410.42
2018-10-03T04:46:34.132Z,101412.47
2018-10-03T04:49:02.540Z,101417.20
2018-10-03T04:51:30.793Z,101426.09
2018-10-03T04:53:59.096Z,101422.97
2018-10-03T04:56:27.451Z,101425.61
2018-10-03T04:58:55.792Z,101438.24
2018-10-03T05:01:24.077Z,101432.30
2018-10-03T05:03:52.452Z,101439.84
2018-10-03T05:06:20.819Z,101435.77
2018-10-03T05:08:49.178Z,101430.11
2018-10-03T05:11:17.587Z,101430.27
2018-10-03T05:13:45.860Z,101438.80
2018-10-03T05:16:14.171Z,101435.97
2018-10-03T05:18:42.531Z,101433.61
2018-10-03T05:21:10.895Z,101434.22
2018-10-03T05:23:39.388Z,101442.12
2018-10-03T05:26:07.708Z,101453.11
2018-10-03T05:28:36.040Z,101453.22
2018-10-03T05:31:04.372Z,101461.06
2018-10-03T05:33:33.468Z,101454.41
2018-10-03T05:36:01.862Z,101465.71
2018-10-03T05:38:30.171Z,101470.98
2018-10-03T05:40:58.512Z,101476.04
2018-10-03T05:43:26.801Z,101491.52
2018-10-03T05:45:55.151Z,101479.28
2018-10-03T05:48:23.504Z,101478.83
2018-10-03T05:50:51.799Z,101480.33
2018-10-03T05:53:20.173Z,101499.02
2018-10-03T05:55:48.585Z,101491.17
2018-10-03T05:58:16.905Z,101497.38
2018-10-03T06:00:45.213Z,101499.94
2018-10-03T06:03:13.553Z,101510.92
2018-10-03T06:05:41.840Z,101509.83
2018-10-03T06:08:10.208Z,101510.23
2018-10-03T06:10:38.528Z,101523.98
2018-10-03T06:13:07.193Z,101514.82
2018-10-03T06:15:35.517Z,101516.58
2018-10-03T06:18:03.855Z,101519.16
2018-10-03T06:20:32.192Z,101525.83
2018-10-03T06:23:00.603Z,101529.02
2018-10-03T06:25:28.906Z,101539.30
2018-10-03T06:27:57.337Z,101536.91
2018-10-03T06:30:25.643Z,101535.44
2018-10-03T06:32:53.961Z,101546.56
2018-10-03T06:35:22.269Z,101553.22
2018-10-03T06:37:50.579Z,101553.59
2018-10-03T06:40:18.916Z,101560.38
2018-10-03T06:42:47.244Z,101557.89
2018-10-03T06:45:15.600Z,101556.70
2018-10-03T06:47:43.927Z,101582.22
2018-10-03T06:50:12.271Z,101587.41
2018-10-03T06:52:40.590Z,101590.14
2018-10-03T06:55:09.215Z,101594.84
2018-10-03T06:57:37.576Z,101591.98
2018-10-03T07:00:05.965Z,101605.28
2018-10-03T07:02:34.293Z,101606.51
2018-10-03T07:05:02.611Z,101608.59
2018-10-03T07:07:30.915Z,101621.59
2018-10-03T07:09:59.255Z,101630.43
2018-10-03T07:12:27.580Z,101634.95
2018-10-03T07:14:55.948Z,101636.94
2018-10-03T07:17:24.335Z,101645.14
2018-10-03T07:19:52.652Z,101650.84
2018-10-03T07:22:20.969Z,101658.01
2018-10-03T07:24:49.314Z,101659.05
2018-10-03T07:27:24.468Z,101661.25
2018-10-03T07:29:52.871Z,101664.32
2018-10-03T07:32:21.176Z,101663.83
2018-10-03T07:34:49.530Z,101681.30
2018-10-03T07:37:17.838Z,101672.66
2018-10-03T07:39:46.196Z,101680.31
2018-10-03T07:42:14.528Z,101679.75
2018-10-03T07:44:42.829Z,101688.98
2018-10-03T07:47:11.221Z,101689.89
2018-10-03T07:49:39.551Z,101692.64
2018-10-03T07:52:08.044Z,101700.30
2018-10-03T07:54:36.368Z,101704.77
2018-10-03T07:57:04.667Z,101713.75
2018-10-03T07:59:32.959Z,101716.11
2018-10-03T08:02:01.348Z,101720.14
2018-10-03T08:04:29.695Z,101716.07
2018-10-03T08:06:58.067Z,101719.48
2018-10-03T08:09:26.404Z,101727.63
2018-10-03T08:11:54.731Z,101734.94
2018-10-03T08:14:23.071Z,101722.60
2018-10-03T08:16:51.419Z,101721.13
2018-10-03T08:19:19.753Z,101726.23
2018-10-03T08:21:48.392Z,101727.47
2018-10-03T08:24:16.737Z,101732.42
2018-10-03T08:26:45.064Z,101749.55
2018-10-03T08:29:13.399Z,101747.54
2018-10-03T08:31:41.743Z,101752.05
2018-10-03T08:34:10.081Z,101751.62
2018-10-03T08:36:38.605Z,101753.78
2018-10-03T08:39:09.659Z,101750.12
2018-10-03T08:41:38.087Z,101758.83
2018-10-03T08:44:06.472Z,101758.02
2018-10-03T08:46:34.818Z,101761.38
2018-10-03T08:49:03.161Z,101765.96
2018-10-03T08:51:31.529Z,101767.91
2018-10-03T08:53:59.831Z,101767.08
2018-10-03T08:56:28.160Z,101772.67
2018-10-03T08:58:56.432Z,101768.98
2018-10-03T09:01:24.752Z,101781.11
2018-10-03T09:03:53.052Z,101784.97
2018-10-03T09:06:21.368Z,101781.73
2018-10-03T09:08:49.685Z,101777.92
2018-10-03T09:11:18.036Z,101789.14
2018-10-03T09:13:46.344Z,101790.05
2018-10-03T09:16:14.712Z,101793.14
2018-10-03T09:18:43.038Z,101792.67
2018-10-03T09:21:11.345Z,101794.83
2018-10-03T09:23:39.681Z,101800.44
2018-10-03T09:26:07.988Z,101798.91
2018-10-03T09:28:36.318Z,101809.87
2018-10-03T09:31:04.659Z,101811.87
2018-10-03T09:33:32.997Z,101817.17
2018-10-03T09:36:01.348Z,101816.11
2018-10-03T09:38:29.709Z,101830.63
2018-10-03T09:40:58.016Z,101833.13
2018-10-03T09:43:26.390Z,101828.11
2018-10-03T09:45:54.725Z,101824.66
2018-10-03T09:48:23.007Z,101832.42
2018-10-03T09:50:51.314Z,101839.86
2018-10-03T09:53:19.592Z,101846.29
2018-10-03T09:55:47.956Z,101844.66
2018-10-03T09:58:16.236Z,101848.01
2018-10-03T10:00:49.892Z,101848.94
2018-10-03T10:03:18.203Z,101860.52
2018-10-03T10:05:46.500Z,101867.73
2018-10-03T10:08:14.844Z,101867.48
2018-10-03T10:10:43.169Z,101867.18
2018-10-03T10:13:11.515Z,101864.16
2018-10-03T10:15:39.835Z,101861.77
2018-10-03T10:18:08.160Z,101862.88
2018-10-03T10:20:36.536Z,101867.30
2018-10-03T10:23:04.846Z,101869.36
2018-10-03T10:25:33.156Z,101871.75
2018-10-03T10:28:01.484Z,101869.93
2018-10-03T10:30:29.791Z,101873.11
2018-10-03T10:32:58.253Z,101874.44
2018-10-03T10:35:26.683Z,101876.17
2018-10-03T10:37:55.033Z,101875.73
2018-10-03T10:40:23.418Z,101872.87
2018-10-03T10:42:51.720Z,101878.92
2018-10-03T10:45:20.073Z,101879.31
2018-10-03T10:47:48.460Z,101878.19
2018-10-03T10:50:16.826Z,101887.34
2018-10-03T10:52:45.145Z,101892.61
2018-10-03T10:55:13.472Z,101895.34
2018-10-03T10:57:42.008Z,101896.20
2018-10-03T11:00:10.330Z,101904.13
2018-10-03T11:02:38.661Z,101893.70
2018-10-03T11:05:07.044Z,101897.33
2018-10-03T11:07:35.523Z,101895.33
2018-10-03T11:10:03.881Z,101897.63
2018-10-03T11:12:32.217Z,101898.56
2018-10-03T11:15:00.553Z,101899.20
2018-10-03T11:17:28.845Z,101893.23
2018-10-03T11:19:57.208Z,101896.66
2018-10-03T11:22:25.534Z,101902.72
2018-10-03T11:24:54.104Z,101904.81
2018-10-03T11:27:22.260Z,101907.66
2018-10-03T11:29:50.604Z,101902.41
2018-10-03T11:32:18.924Z,101904.56
2018-10-03T11:34:47.259Z,101910.16
2018-10-03T11:37:15.571Z,101909.46
2018-10-03T11:39:43.904Z,101911.37
2018-10-03T11:42:12.231Z,101901.61
2018-10-03T11:44:40.672Z,101903.84
2018-10-03T11:47:09.021Z,101901.03
2018-10-03T11:49:37.449Z,101904.77
2018-10-03T11:52:05.776Z,101910.31
2018-10-03T11:54:34.109Z,101905.36
2018-10-03T11:57:02.521Z,101905.80
2018-10-03T11:59:30.872Z,101903.43
2018-10-03T12:01:59.216Z,101901.19
2018-10-03T12:04:27.592Z,101904.30
2018-10-03T12:06:55.910Z,101899.23
2018-10-03T12:09:24.301Z,101894.06
2018-10-03T12:11:52.656Z,101901.83
2018-10-03T12:14:20.971Z,101905.73
2018-10-03T12:16:49.286Z,101903.73
2018-10-03T12:19:17.812Z,101902.44
2018-10-03T12:21:46.141Z,101910.48
2018-10-03T12:24:14.500Z,101910.73
2018-10-03T12:26:42.846Z,101913.25
2018-10-03T12:29:11.195Z,101915.24
2018-10-03T12:31:39.608Z,101915.36
2018-10-03T12:34:08.179Z,101912.19
2018-10-03T12:36:36.463Z,101910.96
2018-10-03T12:39:06.843Z,101908.21
2018-10-03T12:41:35.136Z,101904.66
2018-10-03T12:44:03.464Z,101898.02
2018-10-03T12:46:31.856Z,101893.72
2018-10-03T12:49:00.186Z,101903.37
2018-10-03T12:51:28.743Z,101905.59
2018-10-03T12:53:57.072Z,101904.19
2018-10-03T12:56:25.375Z,101902.82
2018-10-03T12:58:53.692Z,101898.04
2018-10-03T13:01:22.071Z,101902.73
2018-10-03T13:03:50.349Z,101899.87
2018-10-03T13:06:18.675Z,101896.43
2018-10-03T13:08:47.017Z,101889.28
2018-10-03T13:11:15.353Z,101896.76
2018-10-03T13:13:43.711Z,101896.96
2018-10-03T13:16:12.572Z,101901.66
2018-10-03T13:18:41.145Z,101900.52
2018-10-03T13:21:09.620Z,101899.00
2018-10-03T13:23:38.004Z,101909.02
2018-10-03T13:26:06.337Z,101903.78
2018-10-03T13:28:34.699Z,101904.25
2018-10-03T13:31:03.040Z,101902.32
2018-10-03T13:33:31.647Z,101905.61
2018-10-03T13:35:59.988Z,101904.95
2018-10-03T13:38:28.304Z,101906.39
2018-10-03T13:40:56.649Z,101905.63
2018-10-03T13:43:24.960Z,101903.05
2018-10-03T13:45:53.351Z,101905.48
2018-10-03T13:48:21.703Z,101907.08
2018-10-03T13:50:50.039Z,101904.59
2018-10-03T13:53:18.380Z,101898.61
2018-10-03T13:55:46.737Z,101914.21
2018-10-03T13:58:15.082Z,101904.86
2018-10-03T14:00:43.432Z,101912.06
2018-10-03T14:03:11.759Z,101912.36
2018-10-03T14:05:40.051Z,101914.31
2018-10-03T14:08:08.364Z,101914.24
2018-10-03T14:10:36.742Z,101913.15
2018-10-03T14:13:05.060Z,101903.44
2018-10-03T14:15:33.424Z,101902.77
2018-10-03T14:24:07.990Z,101908.30
2018-10-03T14:26:36.290Z,101909.94
2018-10-03T14:29:04.535Z,101911.13
2018-10-03T14:31:32.746Z,101910.63
2018-10-03T14:34:00.990Z,101913.48
2018-10-03T14:36:29.272Z,101914.63
2018-10-03T14:38:57.538Z,101910.05
2018-10-03T14:41:25.799Z,101910.24
2018-10-03T14:43:54.039Z,101903.59
2018-10-03T14:46:22.321Z,101910.24
2018-10-03T14:48:50.550Z,101909.55
2018-10-03T14:51:18.793Z,101910.05
2018-10-03T14:53:47.093Z,101910.16
2018-10-03T14:56:15.335Z,101903.34
2018-10-03T14:58:43.649Z,101899.48
2018-10-03T15:01:11.853Z,101900.28
2018-10-03T15:03:40.106Z,101910.88
2018-10-03T15:06:08.393Z,101908.93
2018-10-03T15:08:36.758Z,101905.19
2018-10-03T15:11:04.991Z,101906.75
2018-10-03T15:13:33.305Z,101908.31
2018-10-03T15:16:01.541Z,101907.45
2018-10-03T15:18:29.818Z,101902.64
2018-10-03T15:20:58.021Z,101906.45
2018-10-03T15:23:26.265Z,101903.33
2018-10-03T15:25:54.506Z,101901.64
2018-10-03T15:28:22.773Z,101907.84
2018-10-03T15:30:51.029Z,101905.03
2018-10-03T15:33:19.267Z,101909.00
2018-10-03T15:35:47.529Z,101907.84
2018-10-03T15:38:15.834Z,101906.66
2018-10-03T15:40:44.062Z,101907.45
2018-10-03T15:43:12.309Z,101906.58
2018-10-03T15:45:40.568Z,101908.33
2018-10-03T15:48:09.129Z,101914.27
2018-10-03T15:50:37.469Z,101907.02
2018-10-03T15:53:05.746Z,101911.75
2018-10-03T15:55:33.989Z,101914.03
2018-10-03T15:58:02.224Z,101920.41
2018-10-03T16:00:30.475Z,101919.01
2018-10-03T16:02:58.699Z,101924.97
2018-10-03T16:05:26.958Z,101923.86
2018-10-03T16:07:55.213Z,101921.78
2018-10-03T16:10:23.506Z,101919.55
2018-10-03T16:12:52.021Z,101916.84
2018-10-03T16:15:20.257Z,101917.63
2018-10-03T16:17:48.581Z,101920.77
2018-10-03T16:20:16.828Z,101922.72
2018-10-03T16:22:45.085Z,101927.34
2018-10-03T16:25:14.060Z,101926.93
2018-10-03T16:27:42.302Z,101932.67
2018-10-03T16:30:10.551Z,101936.10
2018-10-03T16:32:38.794Z,101941.47
2018-10-03T16:35:07.087Z,101938.92
2018-10-03T16:37:35.318Z,101941.48
2018-10-03T16:40:03.567Z,101943.74
2018-10-03T16:42:31.807Z,101939.71
2018-10-03T16:45:00.053Z,101941.93
2018-10-03T16:47:28.280Z,101942.98
2018-10-03T16:49:56.622Z,101947.88
2018-10-03T16:52:24.865Z,101942.64
2018-10-03T16:54:53.118Z,101946.19
2018-10-03T16:57:21.374Z,101942.92
2018-10-03T16:59:49.618Z,101952.61
2018-10-03T17:02:17.857Z,101960.39
2018-10-03T17:04:46.938Z,101962.56
2018-10-03T17:07:15.180Z,101962.28
2018-10-03T17:09:43.487Z,101957.69
2018-10-03T17:12:11.739Z,101965.94
2018-10-03T17:14:41.989Z,101968.55
2018-10-03T17:17:13.147Z,101976.89
2018-10-03T17:19:41.383Z,101982.71
2018-10-03T17:22:09.717Z,101981.23
2018-10-03T17:24:38.543Z,101981.76
2018-10-03T17:27:06.854Z,101993.34
2018-10-03T17:29:35.318Z,101992.89
2018-10-03T17:32:03.621Z,101994.27
2018-10-03T17:34:31.879Z,101986.14
2018-10-03T17:37:00.095Z,101988.01
2018-10-03T17:39:28.926Z,101994.64
2018-10-03T17:41:57.349Z,101993.00
2018-10-03T17:44:25.827Z,101994.34
2018-10-03T17:46:55.362Z,101999.78
2018-10-03T17:49:23.588Z,102002.24
2018-10-03T17:51:51.813Z,102003.72
2018-10-03T17:54:20.153Z,102010.20
2018-10-03T17:56:48.402Z,102011.08
2018-10-03T17:59:17.224Z,102013.59
2018-10-03T18:01:50.473Z,102022.59
2018-10-03T18:04:18.709Z,102024.27
2018-10-03T18:06:46.937Z,102025.38
2018-10-03T18:09:15.246Z,102025.97
2018-10-03T18:11:43.385Z,102029.23
2018-10-03T18:14:11.634Z,102024.06
2018-10-03T18:16:39.858Z,102027.19
2018-10-03T18:19:08.172Z,102024.66
2018-10-03T18:21:36.837Z,102026.71
2018-10-03T18:24:05.159Z,102026.02
2018-10-03T18:26:33.386Z,102026.27
2018-10-03T18:29:01.646Z,102018.94
2018-10-03T18:31:30.012Z,102030.81
2018-10-03T18:33:58.361Z,102027.10
2018-10-03T18:36:26.774Z,102031.44
2018-10-03T18:38:55.100Z,102022.34
2018-10-03T18:41:26.551Z,102032.30
2018-10-03T18:43:55.171Z,102032.90
2018-10-03T18:46:23.557Z,102034.32
2018-10-03T18:48:51.846Z,102036.50
2018-10-03T18:51:20.187Z,102040.81
2018-10-03T18:53:48.471Z,102044.52
2018-10-03T18:56:16.790Z,102047.75
2018-10-03T18:58:45.065Z,102044.63
2018-10-03T19:01:13.324Z,102040.63
2018-10-03T19:03:41.689Z,102043.62
2018-10-03T19:06:10.022Z,102036.77
2018-10-03T19:08:38.336Z,102041.56
2018-10-03T19:11:06.734Z,102042.78
2018-10-03T19:13:35.044Z,102040.14
2018-10-03T19:16:03.289Z,102040.14
2018-10-03T19:18:31.559Z,102030.80
2018-10-03T19:20:59.824Z,102037.16
2018-10-03T19:23:28.078Z,102038.00
2018-10-03T19:25:56.378Z,102047.61
2018-10-03T19:28:24.641Z,102043.31
2018-10-03T19:30:52.902Z,102045.50
2018-10-03T19:33:21.203Z,102050.42
2018-10-03T19:35:49.560Z,102060.48
2018-10-03T19:38:17.748Z,102055.94
2018-10-03T19:40:46.019Z,102059.16
2018-10-03T19:43:14.261Z,102057.86
2018-10-03T19:45:42.579Z,102054.88
2018-10-03T19:48:10.972Z,102061.80
2018-10-03T19:50:39.126Z,102058.22
2018-10-03T19:53:07.401Z,102060.36
2018-10-03T19:55:35.669Z,102056.08
2018-10-03T19:58:03.922Z,102057.48
2018-10-03T20:00:32.177Z,102056.87
2018-10-03T20:03:00.418Z,102057.59
2018-10-03T20:05:28.696Z,102058.45
2018-10-03T20:07:56.960Z,102061.20
2018-10-03T20:10:25.293Z,102061.91
2018-10-03T20:12:53.536Z,102059.98
2018-10-03T20:15:21.813Z,102063.78
2018-10-03T20:17:50.042Z,102061.03
2018-10-03T20:20:18.286Z,102062.58
2018-10-03T20:22:46.522Z,102065.92
2018-10-03T20:25:14.833Z,102061.72
2018-10-03T20:27:43.080Z,102061.50
2018-10-03T20:30:11.327Z,102066.99
2018-10-03T20:32:39.574Z,102072.13
2018-10-03T20:35:07.837Z,102069.73
2018-10-03T20:37:36.105Z,102075.19
2018-10-03T20:40:04.345Z,102077.08
2018-10-03T20:42:32.615Z,102074.19
2018-10-03T20:45:00.944Z,102073.58
2018-10-03T20:47:29.181Z,102065.45
2018-10-03T20:49:57.646Z,102068.19
2018-10-03T20:52:25.892Z,102080.03
2018-10-03T20:54:54.165Z,102084.95
2018-10-03T20:57:22.451Z,102076.56
2018-10-03T20:59:50.697Z,102082.57
2018-10-03T21:02:18.938Z,102085.33
2018-10-03T21:04:47.193Z,102078.27
2018-10-03T21:07:15.445Z,102081.99
2018-10-03T21:09:43.689Z,102084.63
2018-10-03T21:12:11.908Z,102082.09
2018-10-03T21:14:40.178Z,102083.18
2018-10-03T21:17:08.455Z,102079.33
2018-10-03T21:19:36.717Z,102082.44
2018-10-03T21:22:04.964Z,102083.76
2018-10-03T21:24:33.238Z,102091.17
2018-10-03T21:27:01.470Z,102086.03
2018-10-03T21:29:29.741Z,102089.25
2018-10-03T21:31:57.990Z,102092.23
2018-10-03T21:34:26.320Z,102093.64
2018-10-03T21:36:54.617Z,102098.20
2018-10-03T21:39:22.888Z,102089.20
2018-10-03T21:41:51.213Z,102092.28
2018-10-03T21:44:19.505Z,102092.50
2018-10-03T21:46:47.785Z,102095.48
2018-10-03T21:49:16.010Z,102093.28
2018-10-03T21:51:44.234Z,102098.86
2018-10-03T21:54:12.470Z,102087.84
2018-10-03T21:56:40.762Z,102092.84
2018-10-03T21:59:09.085Z,102097.01
2018-10-03T22:01:37.345Z,102097.22
2018-10-03T22:04:05.590Z,102101.86
2018-10-03T22:06:33.802Z,102106.02
2018-10-03T22:09:02.330Z,102107.95
2018-10-03T22:11:30.593Z,102107.47
2018-10-03T22:13:58.816Z,102109.40
2018-10-03T22:16:27.073Z,102110.38
2018-10-03T22:18:55.333Z,102108.27
2018-10-03T22:21:23.581Z,102103.15
2018-10-03T22:23:51.838Z,102108.07
2018-10-03T22:26:20.065Z,102103.91
2018-10-03T22:28:48.318Z,102109.69
2018-10-03T22:31:16.553Z,102111.63
2018-10-03T22:33:44.757Z,102106.72
2018-10-03T22:36:13.026Z,102103.38
2018-10-03T22:38:41.265Z,102108.07
2018-10-03T22:41:09.474Z,102113.69
2018-10-03T22:43:37.809Z,102114.75
2018-10-03T22:46:06.534Z,102110.66
2018-10-03T22:48:34.765Z,102119.25
2018-10-03T22:51:03.104Z,102115.66
2018-10-03T22:53:31.327Z,102110.30
2018-10-03T22:55:59.566Z,102108.77
2018-10-03T22:58:27.774Z,102105.92
2018-10-03T23:00:55.992Z,102105.44
2018-10-03T23:03:24.302Z,102108.42
2018-10-03T23:05:52.558Z,102107.23
2018-10-03T23:08:20.873Z,102107.81
2018-10-03T23:10:49.127Z,102108.77
2018-10-03T23:13:17.389Z,102110.18
2018-10-03T23:15:45.702Z,102108.41
2018-10-03T23:18:13.929Z,102109.96
2018-10-03T23:20:42.177Z,102111.54
2018-10-03T23:23:10.450Z,102109.65
2018-10-03T23:25:38.753Z,102107.85
2018-10-03T23:28:07.005Z,102108.69
2018-10-03T23:30:35.273Z,102113.73
2018-10-03T23:33:03.497Z,102103.91
2018-10-03T23:35:31.703Z,102106.80
2018-10-03T23:37:59.929Z,102109.47
2018-10-03T23:40:28.176Z,102103.86
2018-10-03T23:42:56.421Z,102107.94
2018-10-03T23:45:24.649Z,102111.66
2018-10-03T23:47:52.880Z,102119.14
2018-10-03T23:50:21.110Z,102117.38
2018-10-03T23:52:49.388Z,102116.19
2018-10-03T23:55:17.626Z,102109.16
2018-10-03T23:57:45.857Z,102107.96
